Bodega Marine Reserve, California Weather observations

Data are for 10 minute period ending at time listed.
 Day   Time   Solar   Ave.   Ave.  Ave.  Vector  Max.   Baro.   Total    
  of    of     Rad.   Air    Rel.  Wind   Wind   Wind  Press.  Precip.   
Year   Day            Temp.  Hum.  Speed  Dir.   Gust                    
2018   (PST)  Kw/m2    F      %     mph   deg.    mph    mb.     in.     
-------------------------------------------------------------------------
  21   17:10   0.00   52.9    94   14.9   151    19.5   1022.7    0.00 
  21   17:20   0.00   52.9    94   15.7   150    20.9   1022.7    0.00 
  21   17:30   0.00   52.8    94   15.8   151    21.3   1022.7    0.00 
  21   17:40   0.00   52.9    94   15.6   154    22.2   1022.4    0.00 
  21   17:50   0.00   52.9    94   16.4   153    21.5   1022.4    0.00 
  21   18:00   0.00   53.0    94   15.9   153    23.6   1022.4    0.00 
  21   18:10   0.00   53.0    94   17.6   151    22.9   1022.4    0.00 
  21   18:20   0.00   52.8    94   18.4   153    25.4   1022.7    0.00 
  21   18:30   0.00   52.8    95   16.7   153    23.1   1022.4    0.01 
  21   18:40   0.00   52.7    95   18.7   152    26.7   1022.4    0.01 
  21   18:50   0.00   52.8    95   17.9   152    25.5   1022.4    0.01 
  21   19:00   0.00   52.7    95   18.9   152    26.1   1022.4    0.01 
  21   19:10   0.00   52.7    96   17.8   152    25.9   1022.4    0.01 
  21   19:20   0.00   52.8    96   17.8   152    22.6   1022.4    0.01 
  21   19:30   0.00   52.8    96   14.2   157    20.5   1022.4    0.01 
  21   19:40   0.00   52.9    97   13.3   156    19.4   1022.4    0.01 
  21   19:50   0.00   53.0    97   13.9   155    20.0   1022.4    0.01 
  21   20:00   0.00   53.1    97   15.0   151    20.2   1022.4    0.01 
  21   20:10   0.00   53.1    97   13.8   154    22.9   1022.4    0.00 
  21   20:20   0.00   53.1    97   11.8   164    25.1   1022.4    0.01 
  21   20:30   0.00   53.3    96   15.4   162    23.8   1022.4    0.01 
  21   20:40   0.00   53.5    96   13.2   166    20.5   1022.4    0.01 
  21   20:50   0.00   53.6    96   14.9   164    21.3   1022.4    0.00 
  21   21:00   0.00   53.7    96   13.3   169    18.5   1022.4    0.01 
  21   21:10   0.00   53.7    96   12.3   167    19.0   1022.7    0.01 
  21   21:20   0.00   53.7    97   11.6   168    18.3   1022.7    0.01 
  21   21:30   0.00   53.7    97   11.3   174    16.9   1022.7    0.01 
  21   21:40   0.00   53.8    97    8.6   178    16.1   1022.7    0.02 
  21   21:50   0.00   53.9    97   11.7   177    19.3   1022.7    0.01 
  21   22:00   0.00   54.1    96   12.1   168    19.6   1022.7    0.01 
  21   22:10   0.00   54.1    96   12.5   165    21.0   1022.4    0.03 
  21   22:20   0.00   54.1    96   12.2   166    19.6   1022.4    0.02 
  21   22:30   0.00   54.2    97   13.0   168    18.8   1022.4    0.02 
  21   22:40   0.00   54.2    97   13.9   167    21.3   1022.4    0.02 
  21   22:50   0.00   54.3    97   12.8   167    21.0   1022.4    0.02 
  21   23:00   0.00   54.4    97   14.2   166    20.9   1022.0    0.02 
  21   23:10   0.00   54.5    97   12.5   173    19.5   1022.4    0.04 
  21   23:20   0.00   54.5    97   12.5   172    18.4   1022.4    0.02 
  21   23:30   0.00   54.5    98   10.5   173    16.4   1022.4    0.01 
  21   23:40   0.00   54.5    98   10.1   180    18.1   1022.4    0.03 
  21   23:50   0.00   54.6    98    9.1   206    16.1   1022.4    0.02 
  22    0:00   0.00   54.6    98   10.6   173    17.0   1022.0    0.02 
  22    0:10   0.00   54.6    98    9.2   184    18.4   1022.0    0.04 
  22    0:20   0.00   54.7    98   10.3   192    19.6   1022.0    0.01 
  22    0:30   0.00   54.8    98   12.3   190    22.3   1021.7    0.01 
  22    0:40   0.00   54.8    98   11.6   187    19.3   1021.7    0.01 
  22    0:50   0.00   54.9    98   12.2   199    18.0   1021.7    0.02 
  22    1:00   0.00   54.9    98   17.3   208    24.3   1021.7    0.06 
  22    1:10   0.00   54.8    98   14.5   209    22.9   1021.7    0.00 
  22    1:20   0.00   54.8    98   10.7   207    18.6   1021.7    0.01 
  22    1:30   0.00   54.8    98   15.6   211    24.0   1021.7    0.04 
  22    1:40   0.00   54.8    99   13.1   210    18.9   1021.7    0.00 
  22    1:50   0.00   54.8    99   11.8   209    17.5   1021.7    0.01 
  22    2:00   0.00   54.8    99    8.8   204    17.0   1021.7    0.03 
  22    2:10   0.00   54.8    99   12.4   212    17.5   1021.7    0.03 
  22    2:20   0.00   54.8    99   12.1   211    18.4   1021.7    0.02 
  22    2:30   0.00   54.9    99    9.1   217    15.4   1021.7    0.01 
  22    2:40   0.00   54.9    99   10.8   223    20.2   1021.7    0.00 
  22    2:50   0.00   55.0    99   11.2   225    18.6   1021.7    0.00 
  22    3:00   0.00   55.0    99   11.0   230    17.6   1021.7    0.00 
  22    3:10   0.00   55.0    99   11.2   223    17.6   1021.7    0.00 
  22    3:20   0.00   55.1    99   10.4   224    17.7   1021.3    0.03 
  22    3:30   0.00   55.1    99   11.5   222    18.0   1021.3    0.00 
  22    3:40   0.00   55.1    99   11.3   222    17.0   1021.3    0.02 
  22    3:50   0.00   55.1    99    9.7   223    14.5   1021.3    0.00 
  22    4:00   0.00   55.1    99   10.1   241    15.6   1021.3    0.00 
  22    4:10   0.00   55.1    99   10.2   249    14.2   1021.0    0.00 
  22    4:20   0.00   54.7    99    7.5   282    10.7   1021.0    0.00 
  22    4:30   0.00   54.4    99    8.9   294    13.5   1021.0    0.00 
  22    4:40   0.00   53.7    99   11.7   298    15.9   1021.3    0.00 
  22    4:50   0.00   53.1    99    9.8   299    13.6   1021.3    0.00 
  22    5:00   0.00   52.6    99    9.0   302    11.9   1021.3    0.00 
  22    5:10   0.00   52.3    98   10.7   300    17.0   1021.3    0.00 
  22    5:20   0.00   52.2    96   13.4   302    19.1   1021.3    0.00 
  22    5:30   0.00   52.0    93   12.7   303    17.3   1021.3    0.00 
  22    5:40   0.00   52.2    93   11.7   301    16.3   1021.7    0.00 
  22    5:50   0.00   52.1    91   12.4   303    17.5   1021.7    0.00 
  22    6:00   0.00   52.1    90   11.9   299    17.0   1021.7    0.00 
  22    6:10   0.00   52.2    90   12.4   303    17.6   1021.7    0.00 
  22    6:20   0.00   52.4    91   10.6   318    15.2   1021.7    0.00 
  22    6:30   0.00   52.7    92   10.9   320    16.2   1021.7    0.00 
  22    6:40   0.00   52.8    93   12.2   306    15.7   1021.7    0.00 
  22    6:50   0.00   52.5    92   10.8   301    15.3   1022.0    0.00 
  22    7:00   0.00   52.5    90   12.3   301    17.2   1022.0    0.00 
  22    7:10   0.00   52.2    88   13.7   304    19.3   1022.0    0.00 
  22    7:20   0.00   51.9    86   11.2   308    15.8   1022.4    0.00 
  22    7:30   0.00   51.6    87    9.5   306    12.9   1022.4    0.00 
  22    7:40   0.00   51.6    86    9.1   316    12.1   1022.4    0.00 
  22    7:50   0.01   51.2    88    4.6   333     7.3   1022.4    0.00 
  22    8:00   0.02   50.2    90    3.8   334     5.2   1022.4    0.00 
  22    8:10   0.03   49.8    91    4.0   332     4.6   1022.4    0.00 
  22    8:20   0.07   50.6    91    3.9   328     5.4   1022.7    0.00 
  22    8:30   0.09   51.8    90    3.1   310     3.8   1022.7    0.00 
  22    8:40   0.12   52.7    89    3.1   281     3.7   1023.0    0.00 
  22    8:50   0.14   53.7    88    3.0   285     4.4   1023.0    0.00 
  22    9:00   0.17   53.9    85    5.4   290     8.0   1023.0    0.00 
  22    9:10   0.20   54.5    83    6.4   289    10.6   1023.4    0.00 
  22    9:20   0.23   54.6    81    7.3   293     9.6   1023.4    0.00 
  22    9:30   0.22   54.7    80    8.2   294    10.9   1023.7    0.00 
  22    9:40   0.25   54.6    80    8.5   299    11.2   1023.7    0.00 
  22    9:50   0.27   54.7    79    9.9   304    12.2   1024.0    0.00 
  22   10:00   0.30   55.0    79    9.7   304    12.1   1024.0    0.00 
  22   10:10   0.32   55.1    78    9.1   304    12.2   1024.0    0.00 
  22   10:20   0.34   55.3    78    8.5   306    11.7   1024.4    0.00 
  22   10:30   0.36   55.9    78    7.0   294    10.1   1024.4    0.00 
  22   10:40   0.39   56.0    77    8.9   291    13.0   1024.4    0.00 
  22   10:50   0.39   56.1    77   10.3   287    15.3   1024.4    0.00 
  22   11:00   0.41   56.2    77   10.7   283    14.3   1024.4    0.00 
  22   11:10   0.42   56.3    76   10.5   282    13.8   1024.4    0.00 
  22   11:20   0.44   56.5    76    9.7   285    13.9   1024.4    0.00 
  22   11:30   0.45   56.3    75   11.6   284    16.0   1024.4    0.00 
  22   11:40   0.46   56.6    75   10.8   283    14.8   1024.4    0.00 
  22   11:50   0.47   56.4    75   11.7   282    16.1   1024.0    0.00 
  22   12:00   0.47   56.3    75   12.8   287    16.5   1024.0    0.00 
  22   12:10   0.48   56.5    75   12.6   285    17.0   1024.0    0.00 
  22   12:20   0.48   56.7    75   11.9   287    15.6   1024.0    0.00 
  22   12:30   0.49   56.7    76   11.9   290    16.8   1024.0    0.00 
  22   12:40   0.51   56.8    76   12.7   290    16.7   1023.7    0.00 
  22   12:50   0.53   56.8    76   12.3   293    16.6   1023.7    0.00 
  22   13:00   0.44   57.0    74   13.0   303    17.1   1023.7    0.00 
  22   13:10   0.51   57.1    74   12.4   305    17.0   1023.4    0.00 
  22   13:20   0.54   57.2    73   13.9   304    18.0   1023.4    0.00 
  22   13:30   0.46   57.2    73   13.1   307    17.1   1023.4    0.00 
  22   13:40   0.44   56.6    74   13.2   309    18.1   1023.4    0.00 
  22   13:50   0.48   56.8    73   13.6   308    17.8   1023.4    0.00 
  22   14:00   0.31   56.3    74   13.8   303    17.0   1023.0    0.00 
  22   14:10   0.42   56.3    74   14.1   304    18.2   1023.0    0.00 
  22   14:20   0.39   56.4    74   13.7   304    18.1   1023.0    0.00 
  22   14:30   0.38   56.4    74   13.8   302    16.7   1023.0    0.00 
  22   14:40   0.36   56.6    73   12.6   308    17.4   1023.0    0.00 
  22   14:50   0.34   56.6    72   12.6   308    17.8   1023.4    0.00 
  22   15:00   0.32   56.4    73   13.9   304    18.3   1023.4    0.00 
  22   15:10   0.30   56.0    72   14.5   305    19.2   1023.4    0.00 
  22   15:20   0.28   56.0    72   13.7   303    18.4   1023.4    0.00 
  22   15:30   0.25   55.9    73   13.5   303    17.8   1023.4    0.00 
  22   15:40   0.23   55.7    72   13.9   306    18.9   1023.4    0.00 
  22   15:50   0.21   55.6    72   13.1   307    17.2   1023.4    0.00 
  22   16:00   0.19   55.4    72   12.5   306    17.4   1023.4    0.00 
  22   16:10   0.17   55.2    72   12.5   306    18.6   1023.4    0.00 
  22   16:20   0.16   55.1    73   11.4   313    18.3   1023.4    0.00 
  22   16:30   0.13   55.1    74    9.8   307    15.5   1023.0    0.00 
  22   16:40   0.08   54.4    75    9.8   311    13.2   1023.0    0.00 
  22   16:50   0.06   53.9    75    9.6   313    14.0   1023.0    0.00 
  22   17:00   0.03   53.5    76   10.2   312    13.9   1022.7    0.00 

Return to Bodega Marine Reserve graphs page.


Western Regional Climate Center,wrcc@dri.edu